Thunder radar more information blitzortung!


Radar de pluja more information rain snow radar


Visita la nostra xarxa de llocs de meteo:

Template documentation
and downloads

And another site



No particular awareness of the weather is required.    There are no Weather-warnings

Pagina Historial Weather Underground text

Diari Resum Abril 27, 2016 Unitats:  Mètric    Imperial   Tant
« Previous Dia
SegĂźent Dia »
Diari Setmana Mensual Anual Personalitzada
  Maxima: Minima: Media:
Temperatura: 15.5 °C 9.7 °C 12.3 °C
Punt de rosada: 9.7 °C 6.3 °C 7.3 °C
Humitat: 84 % 68 % 72 %
Wind Speed: 20.4 km/h 1.6 km/h 7.8 km/h
RĂ fegues de vent: 20.9 km/h - -
Vent:- - East
Pression baro: 1014.8 hPa 1012.8 hPa -
Precipitacions: 0.0 mm    
Historical Graphs
 
 
Dades de taula per Abril 27, 2016
Temps Temperatura Punt de rosada Pression baro Vent Wind Speed RĂ fegues de vent Humitat Rainfall Rate (Hourly)
00:04 12.7 °C 7.2 °C 1013.8 hPa ENE 9.3 km/h 9.3 km/h 69 % 0.0 mm
00:05 12.2 °C 7.7 °C 1013.8 hPa ENE 4.8 km/h 4.8 km/h 74 % 0.0 mm
00:25 12.3 °C 7.8 °C 1013.8 hPa NE 3.2 km/h 6.4 km/h 74 % 0.0 mm
00:35 12.2 °C 7.7 °C 1012.8 hPa NE 3.2 km/h 8.0 km/h 74 % 0.0 mm
00:45 12.3 °C 7.8 °C 1012.8 hPa ENE 3.2 km/h 6.4 km/h 74 % 0.0 mm
00:55 12.3 °C 7.8 °C 1013.8 hPa ENE 4.8 km/h 6.4 km/h 74 % 0.0 mm
01:05 12.3 °C 7.8 °C 1013.8 hPa ENE 3.2 km/h 6.4 km/h 74 % 0.0 mm
01:15 12.3 °C 7.8 °C 1013.8 hPa ENE 8.0 km/h 8.0 km/h 74 % 0.0 mm
01:25 12.3 °C 7.8 °C 1013.8 hPa ENE 1.6 km/h 4.8 km/h 74 % 0.0 mm
01:35 12.2 °C 7.7 °C 1013.8 hPa ENE 3.2 km/h 4.8 km/h 74 % 0.0 mm
01:45 12.1 °C 7.6 °C 1013.8 hPa East 3.2 km/h 4.8 km/h 74 % 0.0 mm
01:55 12.0 °C 7.5 °C 1013.8 hPa East 1.6 km/h 3.2 km/h 74 % 0.0 mm
02:05 12.0 °C 7.5 °C 1013.8 hPa East 1.6 km/h 3.2 km/h 74 % 0.0 mm
02:15 11.9 °C 7.4 °C 1013.8 hPa East 3.2 km/h 6.4 km/h 74 % 0.0 mm
02:25 11.9 °C 7.4 °C 1013.8 hPa ESE 3.2 km/h 4.8 km/h 74 % 0.0 mm
02:35 11.8 °C 7.3 °C 1013.8 hPa East 3.2 km/h 6.4 km/h 74 % 0.0 mm
02:45 11.9 °C 7.4 °C 1013.8 hPa East 1.6 km/h 4.8 km/h 74 % 0.0 mm
02:55 12.0 °C 7.5 °C 1013.8 hPa ENE 1.6 km/h 3.2 km/h 74 % 0.0 mm
03:05 12.2 °C 7.5 °C 1012.8 hPa ENE 3.2 km/h 4.8 km/h 73 % 0.0 mm
03:25 12.3 °C 7.6 °C 1012.8 hPa ENE 4.8 km/h 6.4 km/h 73 % 0.0 mm
03:45 12.5 °C 7.6 °C 1013.8 hPa ENE 3.2 km/h 4.8 km/h 72 % 0.0 mm
03:55 12.6 °C 7.7 °C 1013.8 hPa ENE 4.8 km/h 6.4 km/h 72 % 0.0 mm
04:05 12.8 °C 7.9 °C 1013.8 hPa ENE 4.8 km/h 8.0 km/h 72 % 0.0 mm
04:15 12.9 °C 7.9 °C 1013.8 hPa ENE 3.2 km/h 4.8 km/h 72 % 0.0 mm
04:25 13.2 °C 8.3 °C 1013.8 hPa ENE 4.8 km/h 6.4 km/h 72 % 0.0 mm
04:35 13.5 °C 8.6 °C 1013.8 hPa ENE 4.8 km/h 8.0 km/h 72 % 0.0 mm
04:45 13.9 °C 8.7 °C 1013.8 hPa East 4.8 km/h 8.0 km/h 71 % 0.0 mm
04:55 14.0 °C 8.8 °C 1013.8 hPa East 4.8 km/h 9.7 km/h 71 % 0.0 mm
05:05 13.7 °C 8.6 °C 1013.8 hPa East 9.7 km/h 9.7 km/h 71 % 0.0 mm
05:15 13.7 °C 8.6 °C 1013.8 hPa East 8.0 km/h 9.7 km/h 71 % 0.0 mm
05:25 13.7 °C 8.7 °C 1013.8 hPa East 3.2 km/h 9.7 km/h 72 % 0.0 mm
05:35 13.9 °C 8.9 °C 1013.8 hPa East 3.2 km/h 8.0 km/h 72 % 0.0 mm
05:45 14.6 °C 9.4 °C 1013.8 hPa East 9.7 km/h 9.7 km/h 71 % 0.0 mm
05:55 14.6 °C 9.2 °C 1013.8 hPa ENE 4.8 km/h 6.4 km/h 70 % 0.0 mm
06:05 14.4 °C 9.0 °C 1013.8 hPa East 9.7 km/h 9.7 km/h 70 % 0.0 mm
06:15 14.3 °C 8.9 °C 1013.8 hPa East 4.8 km/h 9.7 km/h 70 % 0.0 mm
06:35 15.1 °C 9.7 °C 1013.8 hPa East 8.0 km/h 12.9 km/h 70 % 0.0 mm
06:45 15.5 °C 9.6 °C 1013.8 hPa ENE 8.0 km/h 14.5 km/h 68 % 0.0 mm
06:55 15.1 °C 9.2 °C 1013.8 hPa ENE 9.7 km/h 16.1 km/h 68 % 0.0 mm
07:05 14.9 °C 9.1 °C 1013.8 hPa ENE 11.3 km/h 12.9 km/h 68 % 0.0 mm
07:15 14.8 °C 9.2 °C 1013.8 hPa East 8.0 km/h 9.7 km/h 69 % 0.0 mm
07:25 14.4 °C 8.8 °C 1013.8 hPa East 12.9 km/h 20.9 km/h 69 % 0.0 mm
07:35 14.3 °C 8.4 °C 1013.8 hPa East 9.7 km/h 12.9 km/h 68 % 0.0 mm
12:41 14.2 °C 8.4 °C 1013.8 hPa East 13.0 km/h 13.0 km/h 68 % 0.0 mm
12:46 14.2 °C 8.4 °C 1013.8 hPa West 11.1 km/h 11.1 km/h 68 % 0.0 mm
12:51 14.0 °C 8.2 °C 1013.8 hPa SSE 18.5 km/h 18.5 km/h 68 % 0.0 mm
12:56 14.0 °C 8.2 °C 1013.8 hPa ESE 13.0 km/h 13.0 km/h 68 % 0.0 mm
13:01 13.9 °C 8.1 °C 1013.8 hPa ESE 5.8 km/h 7.6 km/h 68 % 0.0 mm
13:06 13.8 °C 8.0 °C 1013.8 hPa ESE 14.8 km/h 14.8 km/h 68 % 0.0 mm
13:11 13.7 °C 7.9 °C 1013.8 hPa ESE 12.6 km/h 12.6 km/h 68 % 0.0 mm
13:16 13.7 °C 7.9 °C 1013.8 hPa ESE 9.3 km/h 9.3 km/h 68 % 0.0 mm
13:21 13.6 °C 7.8 °C 1013.8 hPa South 13.0 km/h 13.0 km/h 68 % 0.0 mm
13:26 13.4 °C 7.6 °C 1013.8 hPa SE 20.4 km/h 20.4 km/h 68 % 0.0 mm
13:31 13.4 °C 7.6 °C 1013.8 hPa ESE 15.6 km/h 15.6 km/h 68 % 0.0 mm
13:36 13.3 °C 7.5 °C 1013.8 hPa ESE 14.8 km/h 14.8 km/h 68 % 0.0 mm
13:41 13.1 °C 7.3 °C 1013.8 hPa ESE 14.5 km/h 14.5 km/h 68 % 0.0 mm
13:46 13.1 °C 7.3 °C 1013.8 hPa South 6.1 km/h 6.4 km/h 68 % 0.0 mm
13:51 13.0 °C 7.2 °C 1013.8 hPa ESE 13.7 km/h 13.7 km/h 68 % 0.0 mm
13:56 12.9 °C 7.3 °C 1013.8 hPa East 16.7 km/h 16.7 km/h 69 % 0.0 mm
14:01 12.9 °C 7.3 °C 1013.8 hPa East 11.1 km/h 11.4 km/h 69 % 0.0 mm
14:06 12.9 °C 7.3 °C 1013.8 hPa ESE 12.6 km/h 12.6 km/h 69 % 0.0 mm
14:11 12.8 °C 7.3 °C 1013.8 hPa ESE 11.9 km/h 11.9 km/h 69 % 0.0 mm
14:16 12.9 °C 7.6 °C 1013.8 hPa East 10.3 km/h 10.3 km/h 70 % 0.0 mm
14:21 12.9 °C 7.6 °C 1013.8 hPa ESE 13.7 km/h 13.7 km/h 70 % 0.0 mm
14:26 12.9 °C 7.6 °C 1013.8 hPa East 12.6 km/h 12.6 km/h 70 % 0.0 mm
14:31 12.8 °C 7.4 °C 1013.8 hPa East 14.8 km/h 14.8 km/h 70 % 0.0 mm
14:36 12.8 °C 7.4 °C 1013.8 hPa ESE 13.0 km/h 13.0 km/h 70 % 0.0 mm
14:41 12.8 °C 7.4 °C 1013.8 hPa ESE 10.0 km/h 10.0 km/h 70 % 0.0 mm
14:46 12.7 °C 7.6 °C 1014.8 hPa ESE 13.0 km/h 13.0 km/h 71 % 0.0 mm
14:51 12.7 °C 7.6 °C 1014.8 hPa ESE 9.5 km/h 11.4 km/h 71 % 0.0 mm
14:56 12.6 °C 7.5 °C 1014.8 hPa ESE 13.0 km/h 13.0 km/h 71 % 0.0 mm
15:01 12.6 °C 7.5 °C 1014.8 hPa ENE 13.0 km/h 13.0 km/h 71 % 0.0 mm
15:06 12.6 °C 7.5 °C 1014.8 hPa East 11.4 km/h 11.4 km/h 71 % 0.0 mm
15:11 12.6 °C 7.5 °C 1014.8 hPa ESE 16.1 km/h 16.1 km/h 71 % 0.0 mm
15:16 12.6 °C 7.5 °C 1014.8 hPa ESE 9.3 km/h 9.3 km/h 71 % 0.0 mm
15:21 12.5 °C 7.4 °C 1014.8 hPa ESE 9.3 km/h 9.3 km/h 71 % 0.0 mm
15:26 12.5 °C 7.6 °C 1014.8 hPa NNE 7.4 km/h 9.5 km/h 72 % 0.0 mm
15:36 12.5 °C 7.6 °C 1014.8 hPa NNE 7.4 km/h 9.5 km/h 72 % 0.0 mm
15:46 12.6 °C 7.7 °C 1014.8 hPa NE 7.4 km/h 7.4 km/h 72 % 0.0 mm
15:56 12.7 °C 7.6 °C 1014.8 hPa NE 4.2 km/h 6.4 km/h 71 % 0.0 mm
16:01 12.8 °C 7.7 °C 1014.8 hPa ESE 7.6 km/h 7.6 km/h 71 % 0.0 mm
16:06 12.8 °C 7.7 °C 1014.8 hPa ESE 7.6 km/h 7.6 km/h 71 % 0.0 mm
16:11 12.9 °C 7.8 °C 1014.8 hPa ESE 7.6 km/h 7.6 km/h 71 % 0.0 mm
16:16 13.0 °C 7.9 °C 1013.8 hPa ESE 7.6 km/h 7.6 km/h 71 % 0.0 mm
16:21 12.9 °C 7.6 °C 1013.8 hPa ESE 7.9 km/h 9.5 km/h 70 % 0.0 mm
16:26 13.0 °C 7.7 °C 1013.8 hPa NNE 9.3 km/h 9.3 km/h 70 % 0.0 mm
16:31 13.0 °C 7.7 °C 1013.8 hPa SSW 13.0 km/h 13.0 km/h 70 % 0.0 mm
16:36 13.0 °C 7.4 °C 1013.8 hPa ESE 10.3 km/h 10.3 km/h 69 % 0.0 mm
16:41 13.1 °C 7.6 °C 1013.8 hPa SE 10.0 km/h 10.0 km/h 69 % 0.0 mm
16:46 13.1 °C 7.6 °C 1012.8 hPa SE 10.0 km/h 10.0 km/h 69 % 0.0 mm
16:51 13.1 °C 7.6 °C 1012.8 hPa SSE 7.4 km/h 7.4 km/h 69 % 0.0 mm
17:01 13.0 °C 7.4 °C 1013.8 hPa SSE 13.0 km/h 13.0 km/h 69 % 0.0 mm
17:06 13.0 °C 7.4 °C 1013.8 hPa SSE 5.0 km/h 5.0 km/h 69 % 0.0 mm
17:11 13.0 °C 7.4 °C 1013.8 hPa SE 7.4 km/h 7.4 km/h 69 % 0.0 mm
17:16 13.0 °C 7.4 °C 1013.8 hPa SSE 13.0 km/h 13.0 km/h 69 % 0.0 mm
17:21 13.0 °C 7.4 °C 1013.8 hPa ESE 11.1 km/h 11.1 km/h 69 % 0.0 mm
17:26 13.0 °C 7.4 °C 1013.8 hPa ESE 5.6 km/h 5.6 km/h 69 % 0.0 mm
17:31 13.0 °C 7.4 °C 1013.8 hPa ESE 9.3 km/h 9.3 km/h 69 % 0.0 mm
17:36 13.0 °C 7.4 °C 1013.8 hPa ESE 11.1 km/h 11.1 km/h 69 % 0.0 mm
17:46 13.0 °C 7.4 °C 1013.8 hPa ESE 9.3 km/h 9.3 km/h 69 % 0.0 mm
17:51 13.0 °C 7.4 °C 1013.8 hPa East 16.7 km/h 16.7 km/h 69 % 0.0 mm
17:56 13.0 °C 7.4 °C 1013.8 hPa East 9.3 km/h 9.5 km/h 69 % 0.0 mm
18:01 12.8 °C 7.3 °C 1013.8 hPa East 9.3 km/h 9.5 km/h 69 % 0.0 mm
18:06 12.8 °C 7.3 °C 1013.8 hPa ESE 7.4 km/h 9.0 km/h 69 % 0.0 mm
18:11 12.8 °C 7.3 °C 1013.8 hPa ESE 9.3 km/h 9.3 km/h 69 % 0.0 mm
18:16 12.9 °C 7.3 °C 1013.8 hPa South 10.3 km/h 10.3 km/h 69 % 0.0 mm
18:21 12.7 °C 7.2 °C 1013.8 hPa ESE 11.1 km/h 11.4 km/h 69 % 0.0 mm
18:26 12.7 °C 7.2 °C 1012.8 hPa ESE 7.4 km/h 9.0 km/h 69 % 0.0 mm
18:31 12.8 °C 7.3 °C 1012.8 hPa East 13.0 km/h 13.0 km/h 69 % 0.0 mm
18:36 12.6 °C 7.1 °C 1012.8 hPa ESE 11.4 km/h 11.4 km/h 69 % 0.0 mm
18:41 12.6 °C 7.1 °C 1013.8 hPa ESE 9.3 km/h 9.3 km/h 69 % 0.0 mm
18:46 12.6 °C 7.1 °C 1013.8 hPa ESE 9.3 km/h 9.3 km/h 69 % 0.0 mm
18:51 12.6 °C 7.1 °C 1013.8 hPa East 13.0 km/h 13.0 km/h 69 % 0.0 mm
18:56 12.5 °C 6.9 °C 1013.8 hPa ESE 11.1 km/h 11.1 km/h 69 % 0.0 mm
19:01 12.5 °C 6.9 °C 1013.8 hPa ESE 7.4 km/h 7.4 km/h 69 % 0.0 mm
19:06 12.5 °C 6.9 °C 1013.8 hPa ESE 9.3 km/h 9.3 km/h 69 % 0.0 mm
19:11 12.5 °C 6.9 °C 1013.8 hPa East 5.6 km/h 5.6 km/h 69 % 0.0 mm
19:15 10.4 °C 6.9 °C 1013.8 hPa ENE 4.8 km/h 4.8 km/h 79 % 0.0 mm
19:16 12.4 °C 6.9 °C 1013.8 hPa ESE 13.0 km/h 13.0 km/h 69 % 0.0 mm
19:21 12.4 °C 6.9 °C 1013.8 hPa SSE 9.3 km/h 9.3 km/h 69 % 0.0 mm
19:25 10.3 °C 6.8 °C 1013.8 hPa NE 3.2 km/h 4.8 km/h 79 % 0.0 mm
19:26 12.4 °C 7.1 °C 1013.8 hPa East 9.3 km/h 9.3 km/h 70 % 0.0 mm
19:31 12.4 °C 7.1 °C 1013.8 hPa SE 6.9 km/h 6.9 km/h 70 % 0.0 mm
19:35 10.2 °C 6.7 °C 1013.8 hPa ENE 4.8 km/h 6.4 km/h 79 % 0.0 mm
19:36 12.3 °C 7.0 °C 1013.8 hPa ESE 13.0 km/h 13.0 km/h 70 % 0.0 mm
19:41 12.3 °C 7.0 °C 1013.8 hPa SSE 11.4 km/h 11.4 km/h 70 % 0.0 mm
19:45 10.1 °C 6.8 °C 1013.8 hPa NE 3.2 km/h 6.4 km/h 80 % 0.0 mm
19:46 12.2 °C 6.9 °C 1013.8 hPa ESE 10.3 km/h 10.3 km/h 70 % 0.0 mm
19:51 12.2 °C 6.9 °C 1013.8 hPa SSE 11.1 km/h 11.1 km/h 70 % 0.0 mm
19:55 10.1 °C 6.8 °C 1013.8 hPa NE 3.2 km/h 6.4 km/h 80 % 0.0 mm
19:56 12.2 °C 6.9 °C 1013.8 hPa ESE 5.8 km/h 6.1 km/h 70 % 0.0 mm
20:01 12.2 °C 6.9 °C 1013.8 hPa ENE 11.9 km/h 11.9 km/h 70 % 0.0 mm
20:05 10.0 °C 6.9 °C 1013.8 hPa NE 3.2 km/h 4.8 km/h 81 % 0.0 mm
20:06 12.2 °C 6.9 °C 1013.8 hPa ESE 11.1 km/h 11.1 km/h 70 % 0.0 mm
20:11 12.2 °C 6.9 °C 1013.8 hPa East 11.1 km/h 11.1 km/h 70 % 0.0 mm
20:15 10.0 °C 7.1 °C 1013.8 hPa NE 1.6 km/h 4.8 km/h 82 % 0.0 mm
20:16 12.1 °C 6.8 °C 1013.8 hPa ESE 9.7 km/h 9.7 km/h 70 % 0.0 mm
20:21 12.1 °C 6.8 °C 1013.8 hPa SSE 13.0 km/h 13.0 km/h 70 % 0.0 mm
20:25 10.0 °C 7.1 °C 1013.8 hPa ENE 4.8 km/h 4.8 km/h 82 % 0.0 mm
20:26 12.1 °C 6.8 °C 1012.8 hPa ESE 9.3 km/h 9.3 km/h 70 % 0.0 mm
20:31 12.1 °C 6.8 °C 1012.8 hPa ESE 9.3 km/h 9.7 km/h 70 % 0.0 mm
20:35 9.9 °C 6.9 °C 1013.8 hPa ENE 3.2 km/h 4.8 km/h 82 % 0.0 mm
20:36 12.1 °C 6.6 °C 1012.8 hPa East 9.3 km/h 9.7 km/h 69 % 0.0 mm
20:41 12.1 °C 6.8 °C 1013.8 hPa East 9.3 km/h 9.7 km/h 70 % 0.0 mm
20:45 9.8 °C 6.9 °C 1013.8 hPa NE 4.8 km/h 6.4 km/h 82 % 0.0 mm
20:46 12.1 °C 6.8 °C 1013.8 hPa East 9.3 km/h 9.7 km/h 70 % 0.0 mm
20:47 12.1 °C 6.8 °C 1013.8 hPa East 9.3 km/h 9.7 km/h 70 % 0.0 mm
20:52 12.0 °C 6.7 °C 1013.8 hPa East 9.3 km/h 9.7 km/h 70 % 0.0 mm
20:57 12.0 °C 6.7 °C 1013.8 hPa East 9.3 km/h 9.7 km/h 70 % 0.0 mm
21:02 12.0 °C 6.5 °C 1013.8 hPa East 9.3 km/h 9.7 km/h 69 % 0.0 mm
21:05 9.8 °C 7.1 °C 1013.8 hPa ENE 3.2 km/h 4.8 km/h 83 % 0.0 mm
21:07 12.0 °C 6.5 °C 1013.8 hPa East 9.3 km/h 9.7 km/h 69 % 0.0 mm
21:12 12.0 °C 6.5 °C 1012.8 hPa East 9.3 km/h 9.7 km/h 69 % 0.0 mm
21:15 9.7 °C 6.9 °C 1013.8 hPa ENE 3.2 km/h 4.8 km/h 83 % 0.0 mm
21:17 12.0 °C 6.5 °C 1012.8 hPa East 9.3 km/h 9.7 km/h 69 % 0.0 mm
21:22 12.0 °C 6.5 °C 1012.8 hPa East 9.3 km/h 9.7 km/h 69 % 0.0 mm
21:25 9.8 °C 7.2 °C 1013.8 hPa ENE 1.6 km/h 3.2 km/h 84 % 0.0 mm
21:27 12.0 °C 6.5 °C 1013.8 hPa East 9.3 km/h 9.7 km/h 69 % 0.0 mm
21:32 12.0 °C 6.5 °C 1013.8 hPa East 9.3 km/h 9.7 km/h 69 % 0.0 mm
21:35 9.8 °C 7.2 °C 1012.8 hPa ENE 1.6 km/h 4.8 km/h 84 % 0.0 mm
21:37 12.0 °C 6.7 °C 1013.8 hPa East 9.3 km/h 9.7 km/h 70 % 0.0 mm
21:42 12.0 °C 6.7 °C 1013.8 hPa East 9.3 km/h 9.7 km/h 70 % 0.0 mm
21:45 9.7 °C 6.9 °C 1013.8 hPa ENE 4.8 km/h 6.4 km/h 83 % 0.0 mm
21:47 12.0 °C 6.5 °C 1013.8 hPa East 9.3 km/h 9.7 km/h 69 % 0.0 mm
21:52 11.9 °C 6.4 °C 1013.8 hPa East 9.3 km/h 9.7 km/h 69 % 0.0 mm
21:55 9.7 °C 7.1 °C 1013.8 hPa ENE 1.6 km/h 4.8 km/h 84 % 0.0 mm
21:57 11.9 °C 6.4 °C 1013.8 hPa East 9.3 km/h 9.7 km/h 69 % 0.0 mm
22:02 11.9 °C 6.4 °C 1013.8 hPa East 9.3 km/h 9.7 km/h 69 % 0.0 mm
22:05 9.8 °C 7.2 °C 1013.8 hPa NE 3.2 km/h 4.8 km/h 84 % 0.0 mm
22:07 11.9 °C 6.4 °C 1013.8 hPa East 9.3 km/h 9.7 km/h 69 % 0.0 mm
22:12 11.9 °C 6.4 °C 1013.8 hPa East 9.3 km/h 9.7 km/h 69 % 0.0 mm
22:15 9.8 °C 7.2 °C 1013.8 hPa NE 4.8 km/h 6.4 km/h 84 % 0.0 mm
22:17 11.8 °C 6.3 °C 1013.8 hPa ENE 5.6 km/h 8.7 km/h 69 % 0.0 mm
22:22 11.8 °C 6.3 °C 1013.8 hPa ENE 5.6 km/h 8.7 km/h 69 % 0.0 mm
22:25 9.8 °C 7.2 °C 1013.8 hPa NNE 4.8 km/h 6.4 km/h 84 % 0.0 mm
22:27 11.8 °C 6.3 °C 1013.8 hPa ENE 5.6 km/h 8.7 km/h 69 % 0.0 mm
22:32 11.8 °C 6.3 °C 1013.8 hPa ENE 5.6 km/h 8.7 km/h 69 % 0.0 mm
22:35 9.8 °C 7.2 °C 1013.8 hPa NNE 4.8 km/h 6.4 km/h 84 % 0.0 mm
22:37 11.8 °C 6.3 °C 1013.8 hPa ENE 5.6 km/h 8.7 km/h 69 % 0.0 mm
22:42 11.8 °C 6.3 °C 1013.8 hPa ENE 5.6 km/h 8.7 km/h 69 % 0.0 mm
22:45 9.8 °C 7.2 °C 1013.8 hPa NE 3.2 km/h 6.4 km/h 84 % 0.0 mm
22:47 11.8 °C 6.3 °C 1013.8 hPa ENE 5.6 km/h 8.7 km/h 69 % 0.0 mm
22:52 11.8 °C 6.5 °C 1013.8 hPa ENE 5.6 km/h 8.7 km/h 70 % 0.0 mm
22:55 9.8 °C 7.2 °C 1013.8 hPa NE 3.2 km/h 4.8 km/h 84 % 0.0 mm
22:57 11.7 °C 6.4 °C 1013.8 hPa ENE 5.6 km/h 8.7 km/h 70 % 0.0 mm
23:02 11.5 °C 6.6 °C 1013.8 hPa ENE 5.6 km/h 6.1 km/h 72 % 0.0 mm
23:05 9.8 °C 7.2 °C 1012.8 hPa ENE 3.2 km/h 6.4 km/h 84 % 0.0 mm
23:07 11.4 °C 6.6 °C 1013.8 hPa ENE 5.6 km/h 5.6 km/h 72 % 0.0 mm
23:12 11.3 °C 6.6 °C 1014.8 hPa NNE 4.2 km/h 4.2 km/h 73 % 0.0 mm
23:15 9.7 °C 7.1 °C 1013.8 hPa ENE 4.8 km/h 9.7 km/h 84 % 0.0 mm
23:17 11.1 °C 6.6 °C 1014.8 hPa East 3.7 km/h 3.7 km/h 74 % 0.0 mm
23:22 11.0 °C 6.7 °C 1014.8 hPa ENE 3.9 km/h 3.9 km/h 75 % 0.0 mm
23:25 9.8 °C 7.2 °C 1013.8 hPa ENE 1.6 km/h 6.4 km/h 84 % 0.0 mm
23:27 10.9 °C 6.7 °C 1013.8 hPa ENE 3.7 km/h 3.7 km/h 75 % 0.0 mm
23:32 10.8 °C 6.7 °C 1013.8 hPa ENE 3.9 km/h 3.9 km/h 76 % 0.0 mm
23:35 9.8 °C 7.1 °C 1013.8 hPa ENE 3.2 km/h 4.8 km/h 83 % 0.0 mm
23:37 10.8 °C 6.9 °C 1013.8 hPa East 6.1 km/h 6.1 km/h 77 % 0.0 mm
23:42 10.7 °C 6.8 °C 1013.8 hPa East 6.1 km/h 6.1 km/h 77 % 0.0 mm
23:45 9.8 °C 7.2 °C 1012.8 hPa East 3.2 km/h 4.8 km/h 84 % 0.0 mm
23:47 10.6 °C 6.7 °C 1013.8 hPa East 6.1 km/h 6.1 km/h 77 % 0.0 mm
23:52 10.6 °C 6.7 °C 1013.8 hPa ENE 2.3 km/h 2.6 km/h 77 % 0.0 mm
23:55 9.8 °C 7.2 °C 1012.8 hPa ENE 3.2 km/h 4.8 km/h 84 % 0.0 mm
23:57 10.5 °C 6.8 °C 1013.8 hPa East 3.9 km/h 3.9 km/h 78 % 0.0 mm
Meteo Sesrovires
Elogis d' Weather Underground - 3.5 mb

Guio original per  Jim McMurry - jmcmurry@mwt.net Adaptat per a la plantilla per  Wim van der Kuil - Leuven-Template.eu

Trobareu la nostra informacio del temps tambe a:

Weather Underground

AWEKAS